Stone Mountain, Georgia
Current Conditions -  °F | °C
As of 2:53 PM on Friday 26 Dec 2014 (Local Time) from KPDK Reporting Station
Clear Clear  
Wind Chill: 58°   Ceiling: Unl
Heat Index: 58°   Visibility: 10mi
Dew Point: 33°   Wind: 3mph
Humidity: 39%   Direction: NA
Pressure: 30.25"   Gusts: NA
Location:  33.8°N, 84.17°W
Report Text: KPDK 261953Z VRB03KT 10SM CLR 14/01 A3025 RMK AO2 SLP253 T01440006
Loading
Personal Weather Stations






























Interactive Weather Map New forecast layout! Learn more

10-Day Weather Forecast

Advertisements
Track Severe Weather on mobile